San Bernardino, CA (92414)

2:18 PM PST on December 22, 2014 (GMT -0800)
North San Bernardino | Change Station
CLOSE
Current Station
Personal Weather Station
Location: San Bernardino, CA
Elevation: 1278 ft
Nearby Weather Stations
Active Advisory: Wind Advisory

Elev 1278 ft 34.16 °N, 117.29 °W | Updated 5 minutes ago

Clear
Clear
78.1 °F
Feels Like 78 °F
N
0.0
Wind Variable Wind from SSW
Gusts 0.0 mph

Today
High -- | Low -- °F
--% Chance of Precip.
Yesterday
High -- | Low -- °F
Precip. -- in
6:51 AM 4:43 PM
New Moon, 1% visible
Pressure 29.97 in
Visibility 10.0 miles
Clouds Clear
Heat Index 78 °F
Dew Point 47 °F
Humidity 33%
Rainfall 0.00 in
Snow Depth Not available.
UV 2 out of 12
Pollen 5.20 out of 12
Air Quality Not available.
Flu Activity Not available.
METAR KSBD 222150Z 23004KT 10SM SKC 22/07 A2997

More Conditions Fewer Conditions

Pressure 29.97 in
Visibility 10.0 miles
Clouds Clear
Heat Index 78 °F
Dew Point 47 °F
Humidity 33%
Rainfall 0.00 in
Snow Depth Not available.
UV 2 out of 12
Pollen 5.20 out of 12
Air Quality Not available.
Flu Activity Not available.
METAR KSBD 222150Z 23004KT 10SM SKC 22/07 A2997

More Conditions Fewer Conditions

10-Day Weather Forecast

Almanac

Astronomy

Dec. 22, 2014 Rise Set
Actual Time
Civil Twilight
Nautical Twilight
Astronomical Twilight
Moon
Length of Visible Light
Length of Day
Tomorrow will be .
, % of the Moon is Illuminated

Today's Extremes

State Highs State Lows

Community

WunderPhotos

Upload Photos

1,779,691 photos uploaded!

WunderBlogs® & News

Nearby

Air Quality

  Air Quality AQ Index Pollutant
Not available.

Snow Depth

Station Depth Elevation

Earthquake Activity

City Distance Mag. Time & Date
Minimum magnitude displayed is 2.5.

Coastal Water Temperatures

Place Temperature

Nearby Weather Stations